Time;durP1;ratioP1;P1;durP2;ratioP2;P2;SDS_P1;SDS_P2;PMS_P1;PMS_P2;Temp;Humidity;BMP_temperature;BMP_pressure;BME280_temperature;BME280_humidity;BME280_pressure;Samples;Min_cycle;Max_cycle;Signal;HPM_P1;HPM_P2
2020/12/30 05:07:45;;;;;;;1.67;1.40;;;;;;;2.03;95.37;97129.75;5119900;23;20247;-84
2020/12/30 05:10:15;;;;;;;3.37;1.77;;;;;;;2.08;95.35;97125.06;4972668;28;20277;-83
2020/12/30 05:12:42;;;;;;;2.57;1.47;;;;;;;1.79;95.99;97123.47;4959736;28;20247;-84
2020/12/30 05:15:09;;;;;;;2.63;1.80;;;;;;;1.63;97.15;97128.75;4975861;28;20227;-84
2020/12/30 05:17:36;;;;;;;3.80;1.80;;;;;;;1.59;97.88;97122.09;4972346;28;20239;-83
2020/12/30 05:20:08;;;;;;;3.73;1.77;;;;;;;1.81;96.82;97126.81;4973895;28;20307;-79
2020/12/30 05:22:35;;;;;;;4.23;2.07;;;;;;;1.82;95.91;97137.16;4971163;28;20231;-79
2020/12/30 05:25:05;;;;;;;1.60;1.30;;;;;;;1.92;96.03;97146.03;4967807;28;20232;-83
2020/12/30 05:27:35;;;;;;;3.60;1.53;;;;;;;1.81;96.53;97148.47;4960515;28;20283;-79
2020/12/30 05:30:04;;;;;;;4.90;1.83;;;;;;;1.92;96.29;97148.66;4968787;28;20213;-81
2020/12/30 05:32:35;;;;;;;1.80;1.30;;;;;;;2.00;95.73;97150.78;4966734;28;20276;-81
2020/12/30 05:35:03;;;;;;;1.97;1.00;;;;;;;1.98;95.64;97163.06;4968552;28;20239;-81
2020/12/30 05:37:33;;;;;;;1.30;1.17;;;;;;;2.01;95.31;97161.13;4972368;28;20279;-79
2020/12/30 05:40:00;;;;;;;1.83;1.30;;;;;;;2.05;95.22;97159.97;4971702;28;20250;-81
2020/12/30 05:42:28;;;;;;;2.40;1.53;;;;;;;1.94;95.05;97172.00;4987665;28;20227;-80
2020/12/30 05:44:55;;;;;;;3.10;1.77;;;;;;;1.75;96.38;97167.91;4973338;28;20216;-81
2020/12/30 05:47:24;;;;;;;2.43;1.57;;;;;;;1.83;97.15;97171.81;4992910;28;20224;-81
2020/12/30 05:49:53;;;;;;;2.37;1.40;;;;;;;2.03;96.39;97176.63;4990351;28;20204;-80
2020/12/30 05:52:22;;;;;;;3.13;1.73;;;;;;;2.09;95.73;97179.69;4979820;28;20342;-78
2020/12/30 05:54:54;;;;;;;1.37;1.23;;;;;;;2.15;95.69;97178.47;4986860;28;20227;-80
2020/12/30 05:57:30;;;;;;;2.93;1.70;;;;;;;2.11;95.44;97182.19;4988713;28;20289;-78
2020/12/30 05:59:59;;;;;;;2.60;1.60;;;;;;;2.10;96.29;97188.34;4987191;28;20214;-78
2020/12/30 06:02:28;;;;;;;2.97;1.60;;;;;;;2.17;95.52;97185.25;4986495;28;20717;-78
2020/12/30 06:04:57;;;;;;;1.93;1.40;;;;;;;2.16;96.16;97182.78;4988591;28;20220;-79
2020/12/30 06:07:25;;;;;;;2.93;1.80;;;;;;;2.27;95.94;97188.94;4975552;28;20251;-79
2020/12/30 06:09:55;;;;;;;1.27;1.13;;;;;;;2.39;95.43;97189.97;4986889;28;20224;-78
2020/12/30 06:12:25;;;;;;;2.43;1.20;;;;;;;2.44;94.82;97197.50;4986172;28;20247;-78
2020/12/30 06:14:56;;;;;;;3.83;1.40;;;;;;;2.48;94.72;97202.41;4987129;28;20326;-79
2020/12/30 06:17:30;;;;;;;1.67;1.27;;;;;;;2.52;94.59;97198.69;4987279;28;20282;-78
2020/12/30 06:19:58;;;;;;;2.17;1.37;;;;;;;2.63;93.91;97200.59;4986130;28;20335;-81
2020/12/30 06:22:27;;;;;;;1.97;1.47;;;;;;;2.63;93.41;97198.84;4988176;28;20220;-85
2020/12/30 06:24:56;;;;;;;3.67;1.63;;;;;;;2.69;93.68;97200.22;5005763;28;20219;-84
2020/12/30 06:27:25;;;;;;;2.83;1.80;;;;;;;2.66;93.34;97203.88;5007836;28;20244;-84
2020/12/30 06:29:56;;;;;;;4.37;2.00;;;;;;;2.73;93.12;97207.72;5001884;28;20220;-79
2020/12/30 06:32:29;;;;;;;2.80;1.93;;;;;;;2.70;92.83;97210.53;4987985;28;20332;-80
2020/12/30 06:34:57;;;;;;;3.70;1.80;;;;;;;2.64;93.96;97220.53;4983269;28;20228;-81
2020/12/30 06:37:29;;;;;;;3.33;1.80;;;;;;;2.61;93.61;97216.34;4988736;28;20212;-82
2020/12/30 06:40:19;;;;;;;2.63;1.70;;;;;;;2.59;93.10;97228.63;4993803;28;20235;-81
2020/12/30 06:42:46;;;;;;;2.40;1.57;;;;;;;2.62;92.66;97235.44;4986391;28;20244;-81
2020/12/30 06:45:15;;;;;;;5.93;2.00;;;;;;;2.51;93.18;97230.91;4987383;28;20243;-79
2020/12/30 06:47:59;;;;;;;2.73;1.57;;;;;;;2.55;93.19;97240.22;4998409;28;20272;-80
2020/12/30 06:50:26;;;;;;;3.03;2.00;;;;;;;2.51;92.90;97243.94;5010978;28;20219;-81
2020/12/30 06:52:56;;;;;;;2.57;1.80;;;;;;;2.45;93.03;97239.09;5027339;28;20239;-88
2020/12/30 06:55:44;;;;;;;3.03;2.00;;;;;;;2.50;92.40;97239.63;5002517;28;20317;-81
2020/12/30 06:58:41;;;;;;;1.83;1.40;;;;;;;2.53;92.60;97242.06;4984588;28;20727;-84
2020/12/30 07:01:14;;;;;;;2.80;1.93;;;;;;;2.56;92.57;97243.63;5003496;28;20208;-82
2020/12/30 07:03:41;;;;;;;4.67;3.00;;;;;;;2.37;92.97;97243.13;4988396;28;20204;-82
2020/12/30 07:06:29;;;;;;;4.47;2.43;;;;;;;2.41;92.88;97249.81;4996260;28;20363;-80
2020/12/30 07:09:00;;;;;;;4.13;2.60;;;;;;;2.50;93.92;97250.06;4978120;28;20246;-79
2020/12/30 07:11:49;;;;;;;4.97;2.40;;;;;;;2.46;92.55;97251.22;4981585;28;20244;-81
2020/12/30 07:14:18;;;;;;;3.03;2.20;;;;;;;2.42;92.95;97254.94;4981775;28;20212;-81
2020/12/30 07:16:49;;;;;;;3.13;2.37;;;;;;;2.36;93.67;97265.72;4992488;28;20216;-80
2020/12/30 07:19:18;;;;;;;4.03;2.60;;;;;;;2.32;93.82;97267.72;4994879;28;20253;-84
2020/12/30 07:22:02;;;;;;;3.63;2.23;;;;;;;2.40;93.43;97267.22;4994026;28;20242;-83
2020/12/30 07:24:32;;;;;;;3.10;1.93;;;;;;;2.40;93.80;97269.84;4987884;28;20290;-86
2020/12/30 07:27:02;;;;;;;4.17;2.93;;;;;;;2.33;94.29;97271.97;4998868;28;20231;-80
2020/12/30 07:29:29;;;;;;;4.60;2.63;;;;;;;2.32;94.11;97272.09;4988794;28;20219;-79
2020/12/30 07:32:01;;;;;;;3.30;2.30;;;;;;;2.40;93.99;97274.22;4989156;28;20243;-80
2020/12/30 07:34:29;;;;;;;4.50;2.67;;;;;;;2.34;94.03;97281.47;4977979;28;20239;-82
2020/12/30 07:36:56;;;;;;;6.43;2.93;;;;;;;2.36;94.02;97286.59;4988000;28;20708;-79
2020/12/30 07:39:25;;;;;;;3.57;3.20;;;;;;;2.40;93.78;97290.69;4973814;28;20782;-79
2020/12/30 07:41:53;;;;;;;4.17;2.63;;;;;;;2.31;93.92;97296.47;4991866;28;20224;-80
2020/12/30 07:44:22;;;;;;;5.37;3.20;;;;;;;2.29;94.29;97304.38;4977044;28;20270;-80
2020/12/30 07:46:49;;;;;;;4.40;3.13;;;;;;;2.24;94.71;97308.19;4993294;28;20729;-79
2020/12/30 07:49:20;;;;;;;6.13;3.20;;;;;;;2.20;94.20;97309.31;4995693;28;20223;-80
2020/12/30 07:51:49;;;;;;;2.90;2.60;;;;;;;2.31;94.28;97312.09;4993980;28;20240;-81
2020/12/30 07:54:17;;;;;;;4.63;3.13;;;;;;;2.53;93.67;97322.88;4948105;28;20240;-79
2020/12/30 07:56:45;;;;;;;4.03;2.70;;;;;;;2.74;92.93;97323.31;4971032;28;20235;-79
2020/12/30 07:59:19;;;;;;;3.13;2.80;;;;;;;2.90;91.53;97322.25;4966576;28;20225;-80
2020/12/30 08:01:53;;;;;;;2.13;1.90;;;;;;;2.90;91.03;97319.66;4969294;28;20289;-79
2020/12/30 08:04:22;;;;;;;4.17;2.40;;;;;;;2.79;91.79;97323.88;4974136;28;20309;-80
2020/12/30 08:06:49;;;;;;;3.60;2.30;;;;;;;2.85;92.06;97320.88;4971615;28;20328;-84
2020/12/30 08:09:16;;;;;;;5.93;2.50;;;;;;;2.79;91.54;97329.94;4998396;28;20247;-83
2020/12/30 08:11:51;;;;;;;4.80;2.27;;;;;;;2.95;91.71;97334.19;4984418;28;20306;-80
2020/12/30 08:14:21;;;;;;;4.00;2.40;;;;;;;2.91;91.44;97337.00;4998168;28;20215;-80
2020/12/30 08:17:00;;;;;;;3.40;2.63;;;;;;;2.95;91.27;97336.81;4995825;28;20212;-81
2020/12/30 08:19:30;;;;;;;3.40;2.33;;;;;;;2.92;91.73;97343.88;4971030;28;20608;-80
2020/12/30 08:22:01;;;;;;;2.93;2.40;;;;;;;3.07;91.09;97349.03;5000890;28;20222;-82
2020/12/30 08:24:29;;;;;;;2.80;2.50;;;;;;;3.17;90.35;97352.78;5008819;28;20212;-80
2020/12/30 08:26:57;;;;;;;2.33;1.93;;;;;;;3.33;90.08;97350.84;4993146;28;20228;-79
2020/12/30 08:29:29;;;;;;;2.17;1.90;;;;;;;3.39;89.18;97348.69;4975174;28;20228;-79
2020/12/30 08:31:58;;;;;;;1.97;1.77;;;;;;;3.87;87.82;97352.47;4999870;28;20244;-80
2020/12/30 08:34:39;;;;;;;3.33;2.20;;;;;;;4.15;85.99;97353.22;4980032;28;20248;-80
2020/12/30 08:37:15;;;;;;;2.63;1.87;;;;;;;3.98;86.73;97355.19;4968572;28;20216;-81
2020/12/30 08:39:55;;;;;;;2.73;1.90;;;;;;;3.79;87.61;97353.91;4992846;28;20231;-81
2020/12/30 08:42:59;;;;;;;4.33;2.10;;;;;;;3.84;87.83;97357.88;4980306;28;20220;-80
2020/12/30 08:45:28;;;;;;;3.70;2.23;;;;;;;3.88;87.51;97369.78;4989084;28;20243;-80
2020/12/30 08:47:59;;;;;;;2.93;2.50;;;;;;;3.80;86.98;97364.25;4968263;28;20248;-81
2020/12/30 08:50:27;;;;;;;3.70;2.60;;;;;;;3.79;87.79;97369.59;4978164;28;20223;-79
2020/12/30 08:53:02;;;;;;;4.93;3.03;;;;;;;4.02;87.16;97367.09;4975399;28;20283;-80
2020/12/30 08:55:31;;;;;;;3.93;2.10;;;;;;;4.14;87.52;97375.06;4997738;28;20231;-79
2020/12/30 08:58:05;;;;;;;2.20;1.90;;;;;;;4.28;86.61;97378.41;4999277;28;20285;-79
2020/12/30 09:00:35;;;;;;;5.33;1.93;;;;;;;4.33;85.75;97376.31;4997050;28;20236;-82
2020/12/30 09:03:18;;;;;;;2.80;1.60;;;;;;;4.30;86.18;97378.31;5002805;28;20207;-80
2020/12/30 09:05:52;;;;;;;5.00;1.97;;;;;;;4.27;86.93;97386.34;5010760;28;20218;-80
2020/12/30 09:08:21;;;;;;;2.10;1.63;;;;;;;4.33;86.58;97375.47;5009241;28;20232;-81
2020/12/30 09:10:54;;;;;;;3.00;1.57;;;;;;;4.33;86.46;97376.31;5007063;28;20225;-85
2020/12/30 09:13:28;;;;;;;2.90;1.50;;;;;;;4.25;85.78;97383.00;4994358;28;20227;-81
2020/12/30 09:16:02;;;;;;;3.83;1.70;;;;;;;4.32;85.52;97384.28;5006970;28;20244;-82
2020/12/30 09:18:31;;;;;;;3.90;1.77;;;;;;;4.44;84.89;97380.81;4997780;23;20243;-75
2020/12/30 09:20:59;;;;;;;3.27;1.40;;;;;;;4.42;83.39;97385.31;4978208;28;20312;-75
2020/12/30 09:23:27;;;;;;;2.70;2.10;;;;;;;4.43;83.62;97389.63;4970332;28;20228;-76
2020/12/30 09:25:56;;;;;;;2.23;1.50;;;;;;;4.55;84.14;97397.44;4981685;28;20280;-77
2020/12/30 09:28:25;;;;;;;3.13;1.83;;;;;;;4.71;84.00;97402.47;4969222;28;20239;-77
2020/12/30 09:30:57;;;;;;;4.70;2.30;;;;;;;4.68;83.39;97393.06;4974869;28;20226;-76
2020/12/30 09:33:26;;;;;;;3.00;2.20;;;;;;;4.74;82.97;97397.03;4992468;28;20238;-76
2020/12/30 09:35:54;;;;;;;2.73;1.70;;;;;;;4.88;83.01;97393.47;4974687;28;20239;-76
2020/12/30 09:38:24;;;;;;;2.63;1.30;;;;;;;4.80;83.04;97396.59;4970551;28;20215;-76
2020/12/30 09:40:53;;;;;;;3.13;1.97;;;;;;;4.95;82.93;97399.91;4986132;28;20220;-76
2020/12/30 09:43:22;;;;;;;4.43;2.00;;;;;;;5.04;82.90;97400.13;4950722;28;20231;-76
2020/12/30 09:45:56;;;;;;;2.80;1.80;;;;;;;5.04;82.67;97405.38;4971132;28;20224;-78
2020/12/30 09:48:24;;;;;;;4.87;2.20;;;;;;;4.96;82.49;97402.44;4966213;28;20581;-78
2020/12/30 09:50:53;;;;;;;2.57;1.83;;;;;;;5.04;83.25;97407.97;4989070;28;20288;-77
2020/12/30 09:53:23;;;;;;;4.37;1.83;;;;;;;4.95;83.91;97400.75;4973699;28;20231;-78
2020/12/30 09:55:51;;;;;;;3.93;2.43;;;;;;;4.92;83.85;97395.75;4973533;28;20231;-77
2020/12/30 09:58:19;;;;;;;2.60;1.90;;;;;;;5.11;83.65;97411.81;4968895;28;20209;-77
2020/12/30 10:00:46;;;;;;;4.30;1.63;;;;;;;4.98;81.12;97411.03;4983983;28;20219;-78
2020/12/30 10:03:14;;;;;;;3.33;1.60;;;;;;;5.02;82.26;97411.66;4958796;28;20651;-77
2020/12/30 10:05:42;;;;;;;3.37;1.53;;;;;;;5.03;82.51;97416.75;4972876;28;20214;-77
2020/12/30 10:08:10;;;;;;;2.87;1.60;;;;;;;4.87;82.42;97421.41;4967661;28;20233;-77
2020/12/30 10:10:39;;;;;;;2.30;1.20;;;;;;;4.96;82.28;97418.16;4970226;28;20233;-76
2020/12/30 10:13:07;;;;;;;3.63;1.30;;;;;;;4.86;81.83;97411.88;4985930;28;20231;-78
2020/12/30 10:15:35;;;;;;;2.10;1.60;;;;;;;4.90;82.45;97408.09;4953827;28;20208;-77
2020/12/30 10:18:03;;;;;;;3.23;1.53;;;;;;;4.88;81.39;97410.00;4983357;28;20254;-78
2020/12/30 10:20:30;;;;;;;3.93;1.63;;;;;;;4.85;81.21;97410.22;4973462;28;20690;-77
2020/12/30 10:22:58;;;;;;;3.13;1.63;;;;;;;4.79;81.64;97409.78;4965865;28;20244;-77
2020/12/30 10:25:26;;;;;;;5.03;2.00;;;;;;;4.82;82.34;97410.44;4982874;28;20694;-77
2020/12/30 10:27:55;;;;;;;2.60;1.50;;;;;;;4.83;82.19;97417.31;4971946;28;20304;-78
2020/12/30 10:30:22;;;;;;;3.23;1.67;;;;;;;4.65;82.35;97406.34;4981718;28;20217;-77
2020/12/30 10:32:50;;;;;;;4.00;1.50;;;;;;;4.75;82.03;97411.78;4983208;28;20285;-78
2020/12/30 10:35:18;;;;;;;4.37;1.80;;;;;;;4.64;82.62;97417.75;4952077;28;20958;-78
2020/12/30 10:37:46;;;;;;;2.00;1.53;;;;;;;4.86;82.71;97422.34;4975034;28;20220;-78
2020/12/30 10:40:19;;;;;;;3.23;1.60;;;;;;;4.72;82.45;97422.44;4969185;28;20218;-78
2020/12/30 10:42:52;;;;;;;1.93;1.70;;;;;;;4.74;82.14;97425.81;4983076;28;20700;-78
2020/12/30 10:45:28;;;;;;;2.87;1.80;;;;;;;4.78;82.63;97424.66;4985961;28;20521;-78
2020/12/30 10:48:01;;;;;;;4.60;1.97;;;;;;;4.77;82.77;97425.63;4974861;28;20288;-77
2020/12/30 10:50:38;;;;;;;3.00;1.73;;;;;;;4.88;83.15;97425.72;4987043;28;20289;-77
2020/12/30 10:53:09;;;;;;;2.90;1.40;;;;;;;5.04;83.27;97434.16;4982144;28;20335;-77
2020/12/30 10:55:41;;;;;;;2.43;1.97;;;;;;;5.00;82.49;97430.06;4985854;28;20221;-77
2020/12/30 10:58:22;;;;;;;6.50;2.83;;;;;;;5.06;82.49;97427.03;4983249;28;20296;-78
2020/12/30 11:00:54;;;;;;;3.37;2.00;;;;;;;5.15;82.72;97434.25;4971773;28;20254;-77
2020/12/30 11:03:25;;;;;;;2.90;2.10;;;;;;;5.09;82.21;97429.44;4988308;28;20326;-77
2020/12/30 11:05:58;;;;;;;2.37;1.63;;;;;;;5.12;83.16;97434.44;4985293;28;20721;-77
2020/12/30 11:08:25;;;;;;;3.30;1.90;;;;;;;5.19;83.10;97430.44;4973312;28;20227;-78
2020/12/30 11:10:52;;;;;;;3.10;1.87;;;;;;;5.24;82.96;97428.34;4965015;28;20234;-78
2020/12/30 11:13:20;;;;;;;3.10;2.03;;;;;;;5.32;82.63;97424.34;4983285;28;20298;-77
2020/12/30 11:15:48;;;;;;;2.00;1.20;;;;;;;5.39;82.90;97431.66;4987057;28;20207;-78
2020/12/30 11:18:16;;;;;;;3.57;1.30;;;;;;;5.39;82.10;97430.84;4982751;28;20243;-77
2020/12/30 11:20:44;;;;;;;1.63;1.10;;;;;;;5.39;81.82;97436.06;4997067;28;20214;-77
2020/12/30 11:23:11;;;;;;;4.60;1.90;;;;;;;5.06;81.18;97432.25;4975558;28;20242;-77
2020/12/30 11:25:41;;;;;;;4.37;2.00;;;;;;;5.25;82.03;97430.00;4980804;28;20273;-77
2020/12/30 11:28:08;;;;;;;3.90;1.87;;;;;;;5.18;80.08;97434.03;4974999;28;20214;-78
2020/12/30 11:30:35;;;;;;;1.93;1.60;;;;;;;5.40;81.01;97433.34;4993907;28;20253;-76
2020/12/30 11:33:04;;;;;;;2.60;1.60;;;;;;;5.45;81.14;97433.00;4988335;28;20274;-80
2020/12/30 11:35:37;;;;;;;2.47;1.47;;;;;;;5.47;80.67;97428.50;4984911;28;20224;-79
2020/12/30 11:38:07;;;;;;;1.40;1.00;;;;;;;5.46;80.04;97432.06;4975759;28;20313;-80
2020/12/30 11:40:38;;;;;;;3.37;1.80;;;;;;;5.61;80.08;97430.97;4979784;28;20507;-78
2020/12/30 11:43:06;;;;;;;6.43;4.90;;;;;;;5.60;79.39;97429.28;4985850;28;20235;-80
2020/12/30 11:45:33;;;;;;;3.57;2.80;;;;;;;5.75;80.05;97430.81;4991444;28;20212;-79
2020/12/30 11:48:01;;;;;;;2.50;1.83;;;;;;;5.74;79.47;97431.75;4991217;28;20212;-79
2020/12/30 11:50:31;;;;;;;5.20;1.60;;;;;;;5.77;79.48;97432.38;4979967;28;20227;-80
2020/12/30 11:52:59;;;;;;;2.97;1.00;;;;;;;5.79;79.19;97429.63;4988491;28;20251;-80
2020/12/30 11:55:27;;;;;;;2.13;1.43;;;;;;;5.90;79.70;97431.47;4999931;28;20200;-79
2020/12/30 11:57:54;;;;;;;1.03;0.93;;;;;;;6.01;78.52;97427.13;5001466;28;20334;-73
2020/12/30 12:00:22;;;;;;;1.23;0.90;;;;;;;6.05;78.68;97425.97;4985441;28;20215;-77
2020/12/30 12:02:49;;;;;;;3.47;1.20;;;;;;;6.01;78.72;97421.88;5000385;28;20416;-79
2020/12/30 12:05:16;;;;;;;1.30;1.07;;;;;;;6.16;78.73;97433.88;4982600;28;20214;-80
2020/12/30 12:07:43;;;;;;;2.30;1.03;;;;;;;6.27;78.53;97431.28;4984336;28;20298;-77
2020/12/30 12:10:14;;;;;;;1.37;1.20;;;;;;;6.24;78.53;97436.75;4980930;28;20312;-76
2020/12/30 12:12:41;;;;;;;2.53;1.53;;;;;;;6.17;78.16;97435.56;4982355;28;20266;-76
2020/12/30 12:15:09;;;;;;;1.50;1.03;;;;;;;5.90;78.95;97436.72;4982991;28;20220;-77
2020/12/30 12:17:36;;;;;;;2.50;1.70;;;;;;;5.68;79.28;97440.03;4993049;28;20313;-76
2020/12/30 12:20:04;;;;;;;2.00;1.30;;;;;;;5.81;79.17;97444.28;4996769;28;20217;-77
2020/12/30 12:22:31;;;;;;;2.53;1.60;;;;;;;5.78;78.71;97444.50;4998428;28;20223;-77
2020/12/30 12:24:58;;;;;;;1.70;1.40;;;;;;;5.84;79.90;97448.47;4994583;28;20224;-79
2020/12/30 12:27:26;;;;;;;1.67;1.40;;;;;;;5.78;79.79;97454.19;4980238;28;20619;-78
2020/12/30 12:29:53;;;;;;;1.90;1.60;;;;;;;5.91;79.84;97454.13;4983165;28;20227;-78
2020/12/30 12:32:23;;;;;;;3.87;1.37;;;;;;;5.85;79.35;97455.41;4980099;28;20786;-80
2020/12/30 12:34:52;;;;;;;2.43;1.40;;;;;;;5.78;79.68;97459.41;4999056;28;20761;-78
2020/12/30 12:37:22;;;;;;;2.77;1.40;;;;;;;5.84;79.99;97451.06;4988647;28;20322;-80
2020/12/30 12:39:51;;;;;;;2.13;1.50;;;;;;;5.94;79.83;97453.91;4981005;28;20219;-76
2020/12/30 12:42:19;;;;;;;1.87;1.20;;;;;;;6.08;80.30;97445.88;4995658;28;20240;-76
2020/12/30 12:44:48;;;;;;;1.40;1.20;;;;;;;6.16;78.74;97444.34;4996083;28;20216;-76
2020/12/30 12:47:15;;;;;;;1.30;1.13;;;;;;;6.21;79.39;97447.47;4981560;28;20215;-75
2020/12/30 12:49:43;;;;;;;2.57;1.20;;;;;;;6.17;79.45;97446.03;4982004;28;20285;-75
2020/12/30 12:52:10;;;;;;;1.70;1.60;;;;;;;6.15;79.57;97452.31;4989331;28;20238;-75
2020/12/30 12:54:37;;;;;;;2.93;1.47;;;;;;;6.10;79.48;97454.44;4987334;28;20305;-76
2020/12/30 12:57:06;;;;;;;1.30;1.10;;;;;;;6.22;79.17;97437.81;4968550;28;20232;-79
2020/12/30 12:59:34;;;;;;;1.53;1.03;;;;;;;6.19;79.07;97446.75;4983901;28;20599;-79
2020/12/30 13:02:02;;;;;;;3.10;1.67;;;;;;;5.88;80.00;97455.19;4987689;28;20248;-78
2020/12/30 13:04:30;;;;;;;1.53;1.43;;;;;;;5.97;80.35;97451.91;4979691;28;20223;-77
2020/12/30 13:06:59;;;;;;;2.10;1.37;;;;;;;5.91;79.13;97460.22;4987517;28;20220;-79
2020/12/30 13:09:27;;;;;;;1.53;1.20;;;;;;;5.79;80.34;97455.81;4986345;28;20228;-78
2020/12/30 13:11:54;;;;;;;2.70;1.60;;;;;;;5.74;80.17;97461.41;4985452;28;20732;-78
2020/12/30 13:14:21;;;;;;;3.20;1.33;;;;;;;5.74;80.56;97457.94;4965563;28;20216;-78
2020/12/30 13:16:50;;;;;;;2.13;1.40;;;;;;;5.88;80.01;97463.06;4980233;28;20247;-77
2020/12/30 13:19:19;;;;;;;3.03;1.97;;;;;;;5.96;80.02;97468.56;4982876;28;20244;-77
2020/12/30 13:21:47;;;;;;;1.80;1.30;;;;;;;5.84;80.25;97469.44;4971607;28;20240;-78
2020/12/30 13:24:14;;;;;;;1.97;1.43;;;;;;;5.85;80.40;97471.16;4993813;28;20287;-78
2020/12/30 13:26:41;;;;;;;1.40;1.23;;;;;;;5.84;80.53;97475.50;4972099;28;20212;-78
2020/12/30 13:29:09;;;;;;;1.73;1.23;;;;;;;5.97;80.39;97465.03;4975554;28;20218;-81
2020/12/30 13:31:36;;;;;;;3.50;1.83;;;;;;;5.81;80.04;97473.09;4975917;28;20232;-80
2020/12/30 13:34:03;;;;;;;1.60;1.50;;;;;;;5.93;80.66;97481.06;4962391;28;20245;-79
2020/12/30 13:36:32;;;;;;;2.53;1.47;;;;;;;5.89;80.40;97488.34;4985168;28;20203;-78
2020/12/30 13:38:59;;;;;;;3.30;1.60;;;;;;;5.96;80.42;97481.69;4989778;28;20213;-78
2020/12/30 13:41:27;;;;;;;2.40;1.50;;;;;;;5.81;80.60;97490.66;4986267;28;20230;-79
2020/12/30 13:43:54;;;;;;;2.60;1.67;;;;;;;5.90;80.80;97490.00;4952691;28;20440;-78
2020/12/30 13:46:22;;;;;;;3.13;1.30;;;;;;;5.96;80.55;97486.09;4961672;28;20220;-78
2020/12/30 13:48:49;;;;;;;3.27;1.60;;;;;;;5.92;80.08;97482.88;4964523;28;20208;-78
2020/12/30 13:51:18;;;;;;;1.60;1.50;;;;;;;6.01;80.85;97491.81;4978014;28;20246;-78
2020/12/30 13:53:47;;;;;;;2.50;1.57;;;;;;;6.04;80.51;97492.44;4965201;28;20973;-78
2020/12/30 13:56:14;;;;;;;2.90;1.70;;;;;;;5.95;81.13;97497.53;4945709;28;20218;-78
2020/12/30 13:58:43;;;;;;;3.10;1.73;;;;;;;5.74;80.84;97505.13;4970933;28;20307;-79
2020/12/30 14:01:11;;;;;;;2.63;1.43;;;;;;;5.75;81.64;97506.81;4978722;28;20210;-80
2020/12/30 14:03:43;;;;;;;2.10;1.63;;;;;;;5.70;81.33;97514.97;4975864;28;20238;-79
2020/12/30 14:06:20;;;;;;;1.40;1.20;;;;;;;5.72;81.37;97504.41;4938329;28;20318;-80
2020/12/30 14:08:48;;;;;;;1.63;1.30;;;;;;;5.64;81.08;97512.78;4965722;28;20224;-80
2020/12/30 14:11:16;;;;;;;2.43;1.57;;;;;;;5.52;81.85;97512.84;4932258;28;20242;-78
2020/12/30 14:13:44;;;;;;;2.50;1.40;;;;;;;5.72;81.78;97520.13;4952655;28;20279;-79
2020/12/30 14:16:12;;;;;;;2.93;1.73;;;;;;;5.60;81.75;97515.75;4963983;28;20204;-78
2020/12/30 14:18:40;;;;;;;2.60;1.40;;;;;;;5.63;81.37;97520.78;4953697;28;20290;-80
2020/12/30 14:21:07;;;;;;;1.70;1.30;;;;;;;5.57;81.56;97518.56;4947416;28;20639;-77
2020/12/30 14:23:35;;;;;;;1.47;1.37;;;;;;;5.62;81.67;97529.56;4976711;28;20235;-76
2020/12/30 14:26:03;;;;;;;1.87;1.60;;;;;;;5.68;81.44;97526.50;4976725;28;20693;-79
2020/12/30 14:28:31;;;;;;;1.93;1.40;;;;;;;5.63;81.85;97533.88;4980617;28;20277;-78
2020/12/30 14:30:58;;;;;;;3.57;1.37;;;;;;;5.44;82.49;97530.88;4981851;28;20208;-78
2020/12/30 14:33:25;;;;;;;3.00;1.60;;;;;;;5.56;82.20;97538.69;4979117;28;20338;-76
2020/12/30 14:35:52;;;;;;;2.07;1.30;;;;;;;5.55;82.28;97542.28;4997140;28;20316;-76
2020/12/30 14:38:19;;;;;;;3.10;1.30;;;;;;;5.55;82.65;97541.44;4994460;28;20222;-77
2020/12/30 14:40:47;;;;;;;2.97;1.40;;;;;;;5.51;82.59;97542.59;4978049;28;20203;-77
2020/12/30 14:43:15;;;;;;;1.50;1.20;;;;;;;5.60;82.56;97549.81;4979400;28;20224;-76
2020/12/30 14:45:42;;;;;;;2.47;1.67;;;;;;;5.64;82.63;97556.53;4994012;28;20208;-78
2020/12/30 14:51:51;;;;;;;3.20;2.07;;;;;;;5.50;83.79;97554.84;4964524;28;20874;-75
2020/12/30 14:54:18;;;;;;;1.90;1.50;;;;;;;5.50;84.57;97564.50;4937279;28;20241;-76
2020/12/30 14:56:45;;;;;;;1.80;1.60;;;;;;;5.56;84.61;97558.81;4931737;28;20213;-76
2020/12/30 14:59:14;;;;;;;1.37;1.27;;;;;;;5.46;85.24;97557.78;4946209;28;20229;-75
2020/12/30 15:01:41;;;;;;;1.20;1.10;;;;;;;5.14;86.17;97566.06;4952284;28;20239;-76
2020/12/30 15:04:10;;;;;;;1.13;1.03;;;;;;;4.90;88.17;97570.38;4947970;28;20224;-75
2020/12/30 15:06:37;;;;;;;1.07;0.93;;;;;;;4.82;89.39;97583.13;4940817;28;20898;-74
2020/12/30 15:09:05;;;;;;;2.53;1.10;;;;;;;4.64;90.66;97589.56;4955755;28;20242;-75
2020/12/30 15:11:33;;;;;;;1.53;1.07;;;;;;;4.60;91.41;97590.72;4934384;28;20205;-75
2020/12/30 15:14:00;;;;;;;1.23;0.80;;;;;;;4.46;91.99;97585.56;4950950;28;21127;-76
2020/12/30 15:16:29;;;;;;;1.43;0.90;;;;;;;4.69;92.24;97592.72;4949191;28;20248;-75
2020/12/30 15:18:56;;;;;;;1.17;0.70;;;;;;;4.67;90.93;97586.75;4938058;28;20249;-75
2020/12/30 15:21:23;;;;;;;1.67;0.87;;;;;;;4.56;90.73;97597.09;4977998;28;20230;-75
2020/12/30 15:23:50;;;;;;;1.37;1.20;;;;;;;4.46;91.97;97601.25;4979933;28;20541;-76
2020/12/30 15:26:18;;;;;;;0.83;0.70;;;;;;;4.64;91.05;97602.66;4980228;28;20476;-76
2020/12/30 15:28:46;;;;;;;1.07;0.83;;;;;;;4.71;91.20;97606.56;4967955;28;20215;-75
2020/12/30 15:31:13;;;;;;;0.93;0.60;;;;;;;4.75;90.61;97608.00;4979406;28;20231;-75
2020/12/30 15:33:41;;;;;;;0.70;0.60;;;;;;;4.49;91.21;97614.94;4983312;28;20259;-75
2020/12/30 15:36:08;;;;;;;0.87;0.70;;;;;;;4.62;90.88;97612.38;4984036;28;20297;-75
2020/12/30 15:38:36;;;;;;;0.50;0.50;;;;;;;4.73;90.04;97611.66;4961915;28;20215;-75
2020/12/30 15:41:03;;;;;;;0.50;0.50;;;;;;;4.79;90.06;97619.97;4983099;28;20214;-73
2020/12/30 15:43:30;;;;;;;0.60;0.50;;;;;;;4.79;90.28;97614.72;4967083;28;20235;-74
2020/12/30 15:45:58;;;;;;;0.60;0.53;;;;;;;4.74;90.30;97613.34;4980292;28;20223;-74
2020/12/30 15:48:25;;;;;;;1.57;0.93;;;;;;;4.62;90.56;97622.84;4978800;28;20230;-73
2020/12/30 15:50:53;;;;;;;0.80;0.80;;;;;;;4.68;90.60;97625.06;4960169;28;20234;-73
2020/12/30 15:53:20;;;;;;;1.27;0.90;;;;;;;4.70;90.90;97628.41;4962715;28;20228;-75
2020/12/30 15:55:47;;;;;;;0.67;0.67;;;;;;;4.69;90.19;97629.34;4983735;28;20227;-74
2020/12/30 15:58:15;;;;;;;1.13;0.87;;;;;;;4.62;90.98;97633.31;4980900;28;20203;-76
2020/12/30 16:00:42;;;;;;;1.10;0.80;;;;;;;4.57;90.66;97641.47;4969678;28;20286;-76
2020/12/30 16:03:12;;;;;;;1.07;0.77;;;;;;;4.55;91.07;97637.25;4982878;28;20235;-74
2020/12/30 16:05:39;;;;;;;1.50;1.27;;;;;;;4.42;91.24;97646.81;4967172;28;20578;-76
2020/12/30 16:08:07;;;;;;;1.90;1.70;;;;;;;4.25;91.87;97644.44;4966864;28;20224;-75
2020/12/30 16:10:35;;;;;;;1.70;1.20;;;;;;;4.25;92.19;97649.69;4989582;28;20257;-76
2020/12/30 16:13:02;;;;;;;3.20;2.30;;;;;;;4.06;92.92;97656.06;4982234;28;20240;-76
2020/12/30 16:15:30;;;;;;;4.20;3.70;;;;;;;3.89;93.47;97651.06;4986603;28;21215;-76
2020/12/30 16:18:00;;;;;;;2.47;2.20;;;;;;;3.84;94.95;97655.72;4981693;28;20345;-76
2020/12/30 16:20:28;;;;;;;1.73;1.60;;;;;;;3.88;94.26;97657.22;4966434;28;20216;-77
2020/12/30 16:22:57;;;;;;;2.47;1.90;;;;;;;3.90;93.43;97647.50;4984406;28;20236;-76
2020/12/30 16:25:25;;;;;;;1.90;1.70;;;;;;;3.94;93.13;97661.22;4984208;28;20219;-76
2020/12/30 16:27:54;;;;;;;2.63;2.00;;;;;;;3.88;93.21;97662.44;4985105;28;20256;-76
2020/12/30 16:30:22;;;;;;;2.10;1.90;;;;;;;3.87;93.13;97660.78;4963808;28;20211;-76
2020/12/30 16:32:50;;;;;;;4.53;2.90;;;;;;;3.88;93.33;97659.81;4985714;28;20254;-76
2020/12/30 16:35:17;;;;;;;3.13;2.17;;;;;;;3.86;93.15;97669.53;4980897;28;20202;-76
2020/12/30 16:37:44;;;;;;;3.60;2.30;;;;;;;3.83;93.68;97669.72;4984928;28;20318;-76
2020/12/30 16:40:11;;;;;;;2.73;2.10;;;;;;;3.80;93.44;97680.34;4985529;28;20847;-76
2020/12/30 16:42:39;;;;;;;3.30;2.40;;;;;;;3.77;93.40;97677.09;4967727;28;20232;-76
2020/12/30 16:45:07;;;;;;;2.10;1.90;;;;;;;3.73;93.32;97673.84;4984129;28;20263;-76
2020/12/30 16:47:34;;;;;;;2.90;2.10;;;;;;;3.67;93.42;97674.22;4984794;28;20591;-76
2020/12/30 16:50:01;;;;;;;4.43;2.80;;;;;;;3.61;93.48;97676.34;4983959;28;21068;-76
2020/12/30 16:52:28;;;;;;;3.00;2.20;;;;;;;3.58;94.26;97684.34;4985189;28;20235;-76
2020/12/30 16:54:55;;;;;;;2.57;2.10;;;;;;;3.57;94.07;97687.88;4980806;28;20223;-76
2020/12/30 16:57:22;;;;;;;3.47;2.43;;;;;;;3.56;94.09;97684.47;4982293;28;20686;-76
2020/12/30 16:59:50;;;;;;;2.97;2.37;;;;;;;3.54;94.31;97685.50;4982579;28;20232;-74
2020/12/30 17:02:33;;;;;;;3.53;2.80;;;;;;;3.31;94.97;97686.84;4984277;28;20259;-76